createdAt,value
2023-03-03T00:01:33.372Z,0.90
2023-03-03T00:04:00.538Z,0.90
2023-03-03T00:06:27.621Z,0.90
2023-03-03T00:09:00.928Z,0.90
2023-03-03T00:11:28.014Z,0.90
2023-03-03T00:13:55.485Z,0.90
2023-03-03T00:16:29.984Z,0.90
2023-03-03T00:18:57.091Z,0.80
2023-03-03T00:21:31.114Z,0.80
2023-03-03T00:26:57.174Z,0.80
2023-03-03T00:29:26.862Z,0.80
2023-03-03T00:31:54.051Z,0.70
2023-03-03T00:34:31.167Z,0.70
2023-03-03T00:36:58.278Z,0.70
2023-03-03T00:39:25.327Z,0.70
2023-03-03T00:41:57.180Z,0.70
2023-03-03T00:44:25.701Z,0.70
2023-03-03T00:46:54.229Z,0.70
2023-03-03T00:49:26.023Z,0.70
2023-03-03T00:51:53.771Z,0.70
2023-03-03T00:54:21.005Z,0.70
2023-03-03T00:56:48.164Z,0.70
2023-03-03T00:59:15.577Z,0.70
2023-03-03T01:01:42.924Z,0.70
2023-03-03T01:04:10.134Z,0.70
2023-03-03T01:06:37.422Z,0.70
2023-03-03T01:09:04.889Z,0.70
2023-03-03T01:11:52.623Z,0.70
2023-03-03T01:14:19.797Z,0.70
2023-03-03T01:16:46.868Z,0.60
2023-03-03T01:19:52.140Z,0.60
2023-03-03T01:22:19.236Z,0.60
2023-03-03T01:24:46.342Z,0.60
2023-03-03T01:27:15.518Z,0.60
2023-03-03T01:29:42.606Z,0.60
2023-03-03T01:32:09.913Z,0.60
2023-03-03T01:35:06.091Z,0.60
2023-03-03T01:37:34.417Z,0.60
2023-03-03T01:40:02.151Z,0.60
2023-03-03T01:42:30.134Z,0.60
2023-03-03T01:45:20.264Z,0.60
2023-03-03T01:47:48.938Z,0.60
2023-03-03T01:50:18.080Z,0.60
2023-03-03T01:52:58.083Z,0.60
2023-03-03T01:55:26.128Z,0.60
2023-03-03T01:57:55.791Z,0.60
2023-03-03T02:00:51.955Z,0.60
2023-03-03T02:03:19.618Z,0.60
2023-03-03T02:06:13.905Z,0.60
2023-03-03T02:09:09.111Z,0.60
2023-03-03T02:11:36.573Z,0.60
2023-03-03T02:14:03.642Z,0.60
2023-03-03T02:16:47.081Z,0.60
2023-03-03T02:19:20.217Z,0.60
2023-03-03T02:21:47.289Z,0.60
2023-03-03T02:24:48.106Z,0.50
2023-03-03T02:27:15.235Z,0.60
2023-03-03T02:29:56.043Z,0.60
2023-03-03T02:32:27.060Z,0.60
2023-03-03T02:34:54.202Z,0.50
2023-03-03T02:37:21.314Z,0.50
2023-03-03T02:39:54.624Z,0.50
2023-03-03T02:43:13.018Z,0.60
2023-03-03T02:45:43.825Z,0.60
2023-03-03T02:48:11.379Z,0.60
2023-03-03T02:50:38.961Z,0.50
2023-03-03T02:53:06.051Z,0.50
2023-03-03T02:55:33.420Z,0.50
2023-03-03T02:58:01.645Z,0.50
2023-03-03T03:00:28.747Z,0.60
2023-03-03T03:02:55.883Z,0.60
2023-03-03T03:05:23.854Z,0.60
2023-03-03T03:07:50.945Z,0.70
2023-03-03T03:10:21.131Z,0.60
2023-03-03T03:12:48.652Z,0.70
2023-03-03T03:15:15.968Z,0.70
2023-03-03T03:17:43.556Z,0.80
2023-03-03T03:20:12.745Z,0.80
2023-03-03T03:22:39.871Z,0.80
2023-03-03T03:25:08.986Z,0.80
2023-03-03T03:27:36.145Z,0.80
2023-03-03T03:30:04.530Z,0.90
2023-03-03T03:32:32.070Z,0.90
2023-03-03T03:34:59.233Z,0.90
2023-03-03T03:37:27.334Z,0.90
2023-03-03T03:39:54.479Z,1.00
2023-03-03T03:42:21.646Z,1.00
2023-03-03T03:44:51.603Z,1.00
2023-03-03T03:47:19.259Z,1.00
2023-03-03T03:49:46.466Z,1.00
2023-03-03T03:52:14.267Z,1.00
2023-03-03T03:54:41.663Z,1.00
2023-03-03T03:57:08.784Z,1.10
2023-03-03T03:59:40.052Z,1.10
2023-03-03T04:02:07.391Z,1.10
2023-03-03T04:04:34.714Z,1.10
2023-03-03T04:07:01.833Z,1.10
2023-03-03T04:09:30.253Z,1.10
2023-03-03T04:11:57.670Z,1.20
2023-03-03T04:14:25.388Z,1.20
2023-03-03T04:16:54.827Z,1.20
2023-03-03T04:19:22.167Z,1.20
2023-03-03T04:21:52.031Z,1.20
2023-03-03T04:24:19.552Z,1.20
2023-03-03T04:26:49.047Z,1.20
2023-03-03T04:29:16.699Z,1.20
2023-03-03T04:31:44.403Z,1.20
2023-03-03T04:34:12.099Z,1.20
2023-03-03T04:36:39.804Z,1.20
2023-03-03T04:39:07.103Z,1.30
2023-03-03T04:41:34.296Z,1.30
2023-03-03T04:44:01.724Z,1.20
2023-03-03T04:46:34.600Z,1.20
2023-03-03T04:49:03.730Z,1.30
2023-03-03T04:51:36.094Z,1.30
2023-03-03T04:54:03.499Z,1.30
2023-03-03T04:56:31.431Z,1.30
2023-03-03T04:58:58.494Z,1.30
2023-03-03T05:01:26.870Z,1.30
2023-03-03T05:03:54.059Z,1.30
2023-03-03T05:06:22.236Z,1.30
2023-03-03T05:08:54.646Z,1.30
2023-03-03T05:11:21.699Z,1.30
2023-03-03T05:13:52.182Z,1.30
2023-03-03T05:16:19.355Z,1.30
2023-03-03T05:18:55.874Z,1.40
2023-03-03T05:21:22.995Z,1.40
2023-03-03T05:23:50.104Z,1.40
2023-03-03T05:26:44.045Z,1.40
2023-03-03T05:29:11.124Z,1.40
2023-03-03T05:31:57.250Z,1.40
2023-03-03T05:34:24.396Z,1.40
2023-03-03T05:36:51.558Z,1.40
2023-03-03T05:39:18.628Z,1.40
2023-03-03T05:42:10.948Z,1.40
2023-03-03T05:44:38.432Z,1.40
2023-03-03T05:47:05.447Z,1.40
2023-03-03T05:50:13.183Z,1.40
2023-03-03T05:52:40.376Z,1.40
2023-03-03T05:55:07.634Z,1.40
2023-03-03T05:57:35.833Z,1.50
2023-03-03T06:00:04.017Z,1.50
2023-03-03T06:03:16.934Z,1.50
2023-03-03T06:06:10.537Z,1.50
2023-03-03T06:08:37.775Z,1.50
2023-03-03T06:11:04.930Z,1.50
2023-03-03T06:14:17.553Z,1.50
2023-03-03T06:16:44.637Z,1.50
2023-03-03T06:19:11.697Z,1.50
2023-03-03T06:21:43.369Z,1.60
2023-03-03T06:24:10.454Z,1.60
2023-03-03T06:26:37.554Z,1.60
2023-03-03T06:29:05.865Z,1.60
2023-03-03T06:31:33.185Z,1.60
2023-03-03T06:34:00.280Z,1.60
2023-03-03T06:36:31.171Z,1.60
2023-03-03T06:38:58.277Z,1.60
2023-03-03T06:41:25.327Z,1.60
2023-03-03T06:43:52.374Z,1.60
2023-03-03T06:46:20.810Z,1.60
2023-03-03T06:48:47.885Z,1.70
2023-03-03T06:52:05.700Z,1.70
2023-03-03T06:54:32.713Z,1.70
2023-03-03T06:57:00.937Z,1.70
2023-03-03T06:59:29.198Z,1.70
2023-03-03T07:01:56.392Z,1.70
2023-03-03T07:04:25.771Z,1.70
2023-03-03T07:06:53.401Z,1.80
2023-03-03T07:09:21.586Z,1.80
2023-03-03T07:11:48.655Z,1.80
2023-03-03T07:14:16.931Z,1.80
2023-03-03T07:16:44.081Z,1.90
2023-03-03T07:19:17.199Z,1.80
2023-03-03T07:21:44.243Z,1.90
2023-03-03T07:24:30.545Z,1.90
2023-03-03T07:27:21.106Z,1.90
2023-03-03T07:29:48.958Z,1.90
2023-03-03T07:32:31.501Z,1.90
2023-03-03T07:34:59.985Z,1.90
2023-03-03T07:37:29.303Z,1.90
2023-03-03T07:39:57.572Z,2.00
2023-03-03T07:42:27.744Z,2.00
2023-03-03T07:45:21.922Z,2.00
2023-03-03T07:47:48.978Z,2.00
2023-03-03T07:50:20.096Z,2.00
2023-03-03T07:52:51.441Z,2.00
2023-03-03T07:55:21.853Z,2.00
2023-03-03T07:57:49.204Z,2.10
2023-03-03T08:00:17.365Z,2.10
2023-03-03T08:02:45.504Z,2.10
2023-03-03T08:05:32.706Z,2.10
2023-03-03T08:08:08.910Z,2.20
2023-03-03T08:10:49.403Z,2.20
2023-03-03T08:13:17.536Z,2.30
2023-03-03T08:15:45.169Z,2.30
2023-03-03T08:18:41.673Z,2.30
2023-03-03T08:21:08.677Z,2.40
2023-03-03T08:23:36.016Z,2.50
2023-03-03T08:26:03.278Z,2.50
2023-03-03T08:28:30.334Z,2.60
2023-03-03T08:31:12.490Z,2.60
2023-03-03T08:33:40.378Z,2.60
2023-03-03T08:36:10.446Z,2.70
2023-03-03T08:38:37.854Z,2.80
2023-03-03T08:41:07.144Z,2.80
2023-03-03T08:43:34.193Z,2.90
2023-03-03T08:46:01.965Z,3.00
2023-03-03T08:48:29.397Z,3.00
2023-03-03T08:51:04.951Z,3.10
2023-03-03T08:53:36.667Z,3.20
2023-03-03T08:56:04.998Z,3.20
2023-03-03T08:58:35.575Z,3.20
2023-03-03T09:01:05.387Z,3.20
2023-03-03T09:03:32.391Z,3.30
2023-03-03T09:05:59.631Z,3.30
2023-03-03T09:08:26.738Z,3.30
2023-03-03T09:11:00.649Z,3.40
2023-03-03T09:13:28.848Z,3.40
2023-03-03T09:15:57.991Z,3.50
2023-03-03T09:18:31.556Z,3.50
2023-03-03T09:20:58.557Z,3.50
2023-03-03T09:23:50.920Z,3.60
2023-03-03T09:26:30.998Z,3.60
2023-03-03T09:28:58.219Z,3.70
2023-03-03T09:31:26.366Z,3.70
2023-03-03T09:33:57.585Z,3.80
2023-03-03T09:36:24.744Z,3.80
2023-03-03T09:38:51.933Z,3.80
2023-03-03T09:41:24.340Z,3.80
2023-03-03T09:44:12.223Z,3.90
2023-03-03T09:47:08.784Z,4.00
2023-03-03T09:49:36.453Z,4.00
2023-03-03T09:52:16.063Z,4.10
2023-03-03T09:54:47.846Z,4.10
2023-03-03T09:57:16.406Z,4.20
2023-03-03T09:59:50.795Z,4.20
2023-03-03T10:02:28.414Z,4.20
2023-03-03T10:05:08.346Z,4.20
2023-03-03T10:07:35.365Z,4.20
2023-03-03T10:10:21.460Z,4.20
2023-03-03T10:12:53.712Z,4.20
2023-03-03T10:15:46.961Z,4.30
2023-03-03T10:18:33.961Z,4.30
2023-03-03T10:21:01.026Z,4.30
2023-03-03T10:23:54.533Z,4.30
2023-03-03T10:26:43.851Z,4.30
2023-03-03T10:29:22.164Z,4.30
2023-03-03T10:31:56.757Z,4.30
2023-03-03T10:34:23.865Z,4.30
2023-03-03T10:37:03.272Z,4.40
2023-03-03T10:39:43.530Z,4.40
2023-03-03T10:42:13.660Z,4.50
2023-03-03T10:44:50.346Z,4.50
2023-03-03T10:47:36.859Z,4.60
2023-03-03T10:50:13.476Z,4.70
2023-03-03T10:52:43.736Z,4.70
2023-03-03T10:55:13.756Z,4.70
2023-03-03T10:57:43.876Z,4.80
2023-03-03T11:00:27.572Z,4.90
2023-03-03T11:02:54.647Z,4.90
2023-03-03T11:05:30.394Z,5.00
2023-03-03T11:07:58.933Z,5.10
2023-03-03T11:10:42.419Z,5.00
2023-03-03T11:13:13.713Z,5.10
2023-03-03T11:15:40.832Z,5.10
2023-03-03T11:18:11.644Z,5.10
2023-03-03T11:20:54.007Z,5.10
2023-03-03T11:23:43.089Z,5.10
2023-03-03T11:26:14.947Z,5.10
2023-03-03T11:28:48.133Z,5.10
2023-03-03T11:31:29.360Z,5.10
2023-03-03T11:33:58.543Z,5.10
2023-03-03T11:36:32.362Z,5.20
2023-03-03T11:39:00.987Z,5.20
2023-03-03T11:41:31.542Z,5.10
2023-03-03T11:44:02.140Z,5.10
2023-03-03T11:46:44.078Z,5.20
2023-03-03T11:49:16.601Z,5.20
2023-03-03T11:51:49.157Z,5.20
2023-03-03T11:54:36.519Z,5.30
2023-03-03T11:57:09.636Z,5.30
2023-03-03T11:59:49.158Z,5.30
2023-03-03T12:02:23.112Z,5.40
2023-03-03T12:04:50.887Z,5.40
2023-03-03T12:07:34.305Z,5.50
2023-03-03T12:10:11.635Z,5.50
2023-03-03T12:12:45.789Z,5.50
2023-03-03T12:15:28.633Z,5.50
2023-03-03T12:18:11.129Z,5.60
2023-03-03T12:20:43.051Z,5.60
2023-03-03T12:23:16.249Z,5.60
2023-03-03T12:25:48.509Z,5.60
2023-03-03T12:28:23.655Z,5.60
2023-03-03T12:30:53.951Z,5.60
2023-03-03T12:33:21.030Z,5.60
2023-03-03T12:35:50.610Z,5.50
2023-03-03T12:38:28.518Z,5.50
2023-03-03T12:41:11.355Z,5.50
2023-03-03T12:43:57.603Z,5.60
2023-03-03T12:46:29.365Z,5.50
2023-03-03T12:49:03.339Z,5.50
2023-03-03T12:51:35.731Z,5.60
2023-03-03T12:54:10.051Z,5.60
2023-03-03T12:56:49.057Z,5.60
2023-03-03T12:59:19.111Z,5.60
2023-03-03T13:01:59.773Z,5.60
2023-03-03T13:04:37.536Z,5.60
2023-03-03T13:07:13.580Z,5.70
2023-03-03T13:09:50.015Z,5.70
2023-03-03T13:12:41.666Z,5.70
2023-03-03T13:15:18.428Z,5.80
2023-03-03T13:17:49.360Z,5.90
2023-03-03T13:20:16.715Z,5.90
2023-03-03T13:22:49.964Z,5.90
2023-03-03T13:25:36.152Z,5.90
2023-03-03T13:28:06.909Z,5.90
2023-03-03T13:30:34.288Z,5.90
2023-03-03T13:33:03.250Z,6.00
2023-03-03T13:35:32.696Z,5.90
2023-03-03T13:37:59.825Z,5.90
2023-03-03T13:40:30.125Z,5.90
2023-03-03T13:43:04.367Z,5.80
2023-03-03T13:45:31.557Z,5.80
2023-03-03T13:48:06.560Z,5.70
2023-03-03T13:50:37.146Z,5.70
2023-03-03T13:53:04.244Z,5.70
2023-03-03T13:55:34.721Z,5.80
2023-03-03T13:58:07.019Z,5.90
2023-03-03T14:00:52.980Z,6.00
2023-03-03T14:03:24.072Z,6.00
2023-03-03T14:05:52.313Z,6.20
2023-03-03T14:08:22.475Z,6.20
2023-03-03T14:10:58.880Z,6.30
2023-03-03T14:13:29.023Z,6.40
2023-03-03T14:15:59.157Z,6.40
2023-03-03T14:18:36.617Z,6.40
2023-03-03T14:21:05.787Z,6.50
2023-03-03T14:23:37.333Z,6.50
2023-03-03T14:26:04.436Z,6.50
2023-03-03T14:28:42.107Z,6.60
2023-03-03T14:31:29.102Z,6.60
2023-03-03T14:34:02.313Z,6.70
2023-03-03T14:36:33.485Z,6.70
2023-03-03T14:39:00.987Z,6.70
2023-03-03T14:41:41.174Z,6.70
2023-03-03T14:44:20.615Z,6.70
2023-03-03T14:46:47.696Z,6.70
2023-03-03T14:49:36.382Z,6.70
2023-03-03T14:52:04.159Z,6.70
2023-03-03T14:54:34.668Z,6.70
2023-03-03T14:57:17.969Z,6.80
2023-03-03T14:59:59.054Z,6.80
2023-03-03T15:02:31.185Z,6.80
2023-03-03T15:05:31.009Z,6.80
2023-03-03T15:08:09.652Z,6.70
2023-03-03T15:10:39.800Z,6.80
2023-03-03T15:13:20.158Z,6.80
2023-03-03T15:16:08.377Z,6.80
2023-03-03T15:18:35.620Z,6.80
2023-03-03T15:21:07.762Z,6.70
2023-03-03T15:23:53.848Z,6.70
2023-03-03T15:26:35.476Z,6.70
2023-03-03T15:29:05.804Z,6.70
2023-03-03T15:31:35.991Z,6.70
2023-03-03T15:34:06.095Z,6.70
2023-03-03T15:36:36.243Z,6.70
2023-03-03T15:39:10.398Z,6.70
2023-03-03T15:41:45.349Z,6.70
2023-03-03T15:44:14.056Z,6.70
2023-03-03T15:47:01.456Z,6.70
2023-03-03T15:49:28.645Z,6.70
2023-03-03T15:55:27.548Z,6.70
2023-03-03T15:57:57.721Z,6.80
2023-03-03T16:00:43.677Z,6.80
2023-03-03T16:03:20.213Z,6.80
2023-03-03T16:06:01.943Z,6.80
2023-03-03T16:08:32.063Z,6.80
2023-03-03T16:10:59.250Z,6.80
2023-03-03T16:13:41.039Z,6.80
2023-03-03T16:16:33.052Z,6.80
2023-03-03T16:19:07.077Z,6.80
2023-03-03T16:21:53.132Z,6.80
2023-03-03T16:24:25.243Z,6.70
2023-03-03T16:27:18.719Z,6.70
2023-03-03T16:29:48.090Z,6.70
2023-03-03T16:32:24.819Z,6.60
2023-03-03T16:34:55.577Z,6.60
2023-03-03T16:37:22.836Z,6.60
2023-03-03T16:40:11.280Z,6.60
2023-03-03T16:42:38.611Z,6.50
2023-03-03T16:45:21.584Z,6.50
2023-03-03T16:47:58.314Z,6.40
2023-03-03T16:50:26.338Z,6.40
2023-03-03T16:53:00.143Z,6.30
2023-03-03T16:55:27.322Z,6.30
2023-03-03T16:57:54.396Z,6.30
2023-03-03T17:00:46.937Z,6.20
2023-03-03T17:03:35.911Z,6.20
2023-03-03T17:06:10.165Z,6.10
2023-03-03T17:08:41.179Z,6.10
2023-03-03T17:11:08.327Z,6.00
2023-03-03T17:14:03.843Z,6.00
2023-03-03T17:16:46.245Z,5.90
2023-03-03T17:19:28.125Z,5.90
2023-03-03T17:22:27.600Z,5.90
2023-03-03T17:25:00.677Z,5.90
2023-03-03T17:27:28.672Z,5.80
2023-03-03T17:29:58.140Z,5.80
2023-03-03T17:32:37.648Z,5.80
2023-03-03T17:35:04.748Z,5.70
2023-03-03T17:37:38.059Z,5.70
2023-03-03T17:40:17.622Z,5.60
2023-03-03T17:42:47.729Z,5.60
2023-03-03T17:45:15.741Z,5.60
2023-03-03T17:48:01.660Z,5.50
2023-03-03T17:50:47.072Z,5.50
2023-03-03T17:53:39.346Z,5.50
2023-03-03T17:56:06.574Z,5.50
2023-03-03T17:58:33.715Z,5.40
2023-03-03T18:01:19.653Z,5.40
2023-03-03T18:04:02.081Z,5.40
2023-03-03T18:06:29.197Z,5.30
2023-03-03T18:09:14.093Z,5.30
2023-03-03T18:11:48.866Z,5.20
2023-03-03T18:14:29.703Z,5.20
2023-03-03T18:17:02.962Z,5.10
2023-03-03T18:19:49.281Z,5.10
2023-03-03T18:22:21.620Z,5.10
2023-03-03T18:24:52.398Z,5.00
2023-03-03T18:27:19.402Z,5.00
2023-03-03T18:30:05.342Z,5.00
2023-03-03T18:32:54.808Z,5.00
2023-03-03T18:35:25.709Z,4.90
2023-03-03T18:37:53.058Z,4.90
2023-03-03T18:40:20.222Z,4.80
2023-03-03T18:42:49.803Z,4.80
2023-03-03T18:45:20.060Z,4.80
2023-03-03T18:48:37.275Z,4.80
2023-03-03T18:51:06.986Z,4.80
2023-03-03T18:53:35.698Z,4.70
2023-03-03T18:56:10.032Z,4.70
2023-03-03T18:58:38.319Z,4.60
2023-03-03T19:01:10.526Z,4.60
2023-03-03T19:03:38.619Z,4.60
2023-03-03T19:06:08.493Z,4.50
2023-03-03T19:08:53.577Z,4.40
2023-03-03T19:11:53.931Z,4.40
2023-03-03T19:14:53.000Z,4.40
2023-03-03T19:17:23.270Z,4.30
2023-03-03T19:20:02.091Z,4.30
2023-03-03T19:23:21.662Z,4.20
2023-03-03T19:26:37.769Z,4.20
2023-03-03T19:29:04.790Z,4.20
2023-03-03T19:31:44.139Z,4.10
2023-03-03T19:34:14.169Z,4.10
2023-03-03T19:36:47.547Z,4.10
2023-03-03T19:46:54.997Z,3.90
2023-03-03T19:49:28.089Z,3.80
2023-03-03T19:52:19.906Z,3.80
2023-03-03T19:58:28.663Z,3.70
2023-03-03T20:00:59.750Z,3.70
2023-03-03T20:03:34.168Z,3.70
2023-03-03T20:06:17.103Z,3.70
2023-03-03T20:09:09.669Z,3.60
2023-03-03T20:11:48.242Z,3.60
2023-03-03T20:18:18.939Z,3.50
2023-03-03T20:24:28.650Z,3.40
2023-03-03T20:27:37.206Z,3.40
2023-03-03T20:30:11.289Z,3.30
2023-03-03T20:33:03.628Z,3.30
2023-03-03T20:35:48.067Z,3.30
2023-03-03T20:38:27.508Z,3.30
2023-03-03T20:45:06.727Z,3.20
2023-03-03T20:47:39.777Z,3.20
2023-03-03T20:53:13.959Z,3.20
2023-03-03T20:55:47.144Z,3.20
2023-03-03T20:58:38.072Z,3.10
2023-03-03T21:01:27.814Z,3.10
2023-03-03T21:03:56.666Z,3.10
2023-03-03T21:06:23.795Z,3.00
2023-03-03T21:08:59.014Z,3.00
2023-03-03T21:11:32.278Z,3.00
2023-03-03T21:13:59.601Z,3.00
2023-03-03T21:16:56.722Z,3.00
2023-03-03T21:19:25.738Z,3.00
2023-03-03T21:21:59.738Z,3.00
2023-03-03T21:25:02.194Z,2.90
2023-03-03T21:27:51.775Z,2.90
2023-03-03T21:30:18.858Z,2.90
2023-03-03T21:32:46.692Z,2.90
2023-03-03T21:35:24.039Z,2.80
2023-03-03T21:37:52.785Z,2.80
2023-03-03T21:40:23.179Z,2.80
2023-03-03T21:43:03.852Z,2.80
2023-03-03T21:45:30.869Z,2.80
2023-03-03T21:48:02.556Z,2.80
2023-03-03T21:51:03.925Z,2.80
2023-03-03T21:53:31.097Z,2.70
2023-03-03T21:55:58.197Z,2.70
2023-03-03T21:58:25.329Z,2.70
2023-03-03T22:00:52.425Z,2.70
2023-03-03T22:03:20.762Z,2.70
2023-03-03T22:06:19.494Z,2.70
2023-03-03T22:08:46.681Z,2.70
2023-03-03T22:11:45.711Z,2.70
2023-03-03T22:14:12.805Z,2.60
2023-03-03T22:16:58.821Z,2.60
2023-03-03T22:19:25.921Z,2.60
2023-03-03T22:21:52.951Z,2.60
2023-03-03T22:24:23.935Z,2.50
2023-03-03T22:26:51.030Z,2.50
2023-03-03T22:29:22.662Z,2.50
2023-03-03T22:31:57.086Z,2.50
2023-03-03T22:34:24.436Z,2.50
2023-03-03T22:40:48.519Z,2.50
2023-03-03T22:43:41.822Z,2.50
2023-03-03T22:46:09.074Z,2.50
2023-03-03T22:48:36.386Z,2.40
2023-03-03T22:51:40.899Z,2.40
2023-03-03T22:54:07.950Z,2.30
2023-03-03T22:56:34.991Z,2.40
2023-03-03T22:59:02.175Z,2.30
2023-03-03T23:01:29.240Z,2.30
2023-03-03T23:03:56.279Z,2.30
2023-03-03T23:06:24.555Z,2.30
2023-03-03T23:08:51.626Z,2.20
2023-03-03T23:11:18.679Z,2.20
2023-03-03T23:14:31.473Z,2.20
2023-03-03T23:16:58.556Z,2.20
2023-03-03T23:19:25.566Z,2.20
2023-03-03T23:22:05.247Z,2.10
2023-03-03T23:24:33.086Z,2.10
2023-03-03T23:27:00.889Z,2.10
2023-03-03T23:29:27.943Z,2.10
2023-03-03T23:31:55.026Z,2.00
2023-03-03T23:34:22.069Z,2.00
2023-03-03T23:36:56.169Z,2.00
2023-03-03T23:39:23.244Z,2.00
2023-03-03T23:41:50.390Z,1.90
2023-03-03T23:44:17.811Z,1.90
2023-03-03T23:46:44.872Z,1.90
2023-03-03T23:49:12.008Z,1.90
2023-03-03T23:51:46.195Z,1.90
2023-03-03T23:54:13.317Z,1.90
2023-03-03T23:56:40.387Z,1.90
2023-03-03T23:59:45.855Z,1.90
